Darstellungsparameter: Aktuell verwendete Einstellungen:
Skalierung der Graphiken ... ?
xyx+y,   Skalierungsfaktor:      Skalierung: Modus: x, Faktor: 1
Darstellungszeitraum ... ?
Vom - - bis: - -   Zeitraum: 11.11.2019 - 11.11.2019
Min/Max/Avg-Anzeige ... ?
Zeige MMA aktuell
Zeige MMA Monat
Zeige MMA alles
Zeige --A aktuell
Zeige --A Monat
Zeige --A alles
Keine MMA-Anzeige
MMA:
Minimum Maximum Average (ber die Originaldaten)
MMA-Basis: 14.04.2020 - 16.05.2020
Quicknavigation für Darstellung... ?
Tage:      1T, 2T, 3T, 5T -1T -2T -3T -5T +1T +2T +3T +5T
Wochen: 1W, 2W, 3W -1W -2W -3W +1W +2W +3W
Monate: 1M, 3M, 6M -1M -3M -6M +1M +3M +6M
Jahre:    1J, 3J, 5J, 10J -1J -3J -5J -10J +1J +3J +5J +10J
Nutze für die Darstellung ... ?
Originaldaten oder Mittelwerte auf ...
Stundenbasis Tagesbasis Wochenbasis
Monatsbasis Jahresbasis      Datenbasis: Original-Daten
Darstellen als:
Statistik (Auto) Statistik J:M      Darstellung:
Zur Graphik,    zurück zur Übersicht aller Sensoren.
 
Tabellarische Datenbersicht: ?
 
Sensor: Nr:Datum:Temp:Abs-Feuchte:Windchill:Wind:
Aussen-T/F 1 11-11-2019 00:00:00 4.3 C 6.1 g/m*3 4.3 C 1.6 km/h
2 11-11-2019 00:05:00 4.3 C 6.1 g/m*3 4.3 C 4.8 km/h
3 11-11-2019 00:10:00 4.3 C 6.03 g/m*3 4.3 C 3.2 km/h
4 11-11-2019 00:15:00 4.3 C 6.03 g/m*3 4.3 C 0 km/h
5 11-11-2019 00:20:00 4.3 C 6.03 g/m*3 4.3 C 0 km/h
6 11-11-2019 00:25:00 4.3 C 6.03 g/m*3 4.3 C 0 km/h
7 11-11-2019 00:30:00 4.3 C 6.03 g/m*3 4.3 C 0 km/h
8 11-11-2019 00:35:00 4.3 C 6.03 g/m*3 4.3 C 0 km/h
9 11-11-2019 00:40:00 4.2 C 5.99 g/m*3 4.2 C 0 km/h
10 11-11-2019 00:45:00 4.2 C 5.99 g/m*3 4.2 C 0 km/h
11 11-11-2019 00:50:00 4.2 C 5.99 g/m*3 4.2 C 1.6 km/h
12 11-11-2019 00:55:00 4.1 C 5.95 g/m*3 4.1 C 0 km/h
13 11-11-2019 01:00:00 4.1 C 5.95 g/m*3 4.1 C 3.2 km/h
14 11-11-2019 01:05:00 4.1 C 5.95 g/m*3 4.1 C 0 km/h
15 11-11-2019 01:10:00 4 C 5.91 g/m*3 2.44 C 6.4 km/h
16 11-11-2019 01:15:00 3.9 C 5.87 g/m*3 3.9 C 1.6 km/h
17 11-11-2019 01:20:00 3.9 C 5.87 g/m*3 3.9 C 1.6 km/h
18 11-11-2019 01:25:00 3.8 C 5.83 g/m*3 3.8 C 1.6 km/h
19 11-11-2019 01:30:00 3.8 C 5.83 g/m*3 3.8 C 1.6 km/h
20 11-11-2019 01:35:00 3.8 C 5.83 g/m*3 3.8 C 1.6 km/h
21 11-11-2019 01:40:00 3.8 C 5.83 g/m*3 3.8 C 0 km/h
22 11-11-2019 01:45:00 3.7 C 5.8 g/m*3 3.7 C 4.8 km/h
23 11-11-2019 01:50:00 3.7 C 5.73 g/m*3 3.7 C 3.2 km/h
24 11-11-2019 01:55:00 3.6 C 5.69 g/m*3 3.6 C 4.8 km/h
25 11-11-2019 02:00:00 3.6 C 5.76 g/m*3 3.6 C 0 km/h
Sensor: Nr:Datum:Temp:Abs-Feuchte:Windchill:Wind:
Aussen-T/F 26 11-11-2019 02:05:00 3.6 C 5.76 g/m*3 3.6 C 1.6 km/h
27 11-11-2019 02:10:00 3.6 C 5.76 g/m*3 3.6 C 0 km/h
28 11-11-2019 02:15:00 3.6 C 5.76 g/m*3 3.6 C 0 km/h
29 11-11-2019 02:20:00 3.6 C 5.76 g/m*3 3.6 C 0 km/h
30 11-11-2019 02:25:00 3.6 C 5.76 g/m*3 3.6 C 0 km/h
31 11-11-2019 02:30:00 3.6 C 5.76 g/m*3 3.6 C 0 km/h
32 11-11-2019 02:35:00 3.6 C 5.76 g/m*3 3.6 C 0 km/h
33 11-11-2019 02:40:00 3.6 C 5.76 g/m*3 3.6 C 0 km/h
34 11-11-2019 02:45:00 3.6 C 5.76 g/m*3 3.6 C 3.2 km/h
35 11-11-2019 02:50:00 3.5 C 5.72 g/m*3 3.5 C 0 km/h
36 11-11-2019 02:55:00 3.5 C 5.72 g/m*3 3.5 C 0 km/h
37 11-11-2019 03:00:00 3.4 C 5.68 g/m*3 3.4 C 4.8 km/h
38 11-11-2019 03:05:00 3.4 C 5.68 g/m*3 3.4 C 3.2 km/h
39 11-11-2019 03:10:00 3.3 C 5.64 g/m*3 3.3 C 1.6 km/h
40 11-11-2019 03:15:00 3.3 C 5.64 g/m*3 3.3 C 0 km/h
41 11-11-2019 03:20:00 3.3 C 5.64 g/m*3 3.3 C 4.8 km/h
42 11-11-2019 03:25:00 3.3 C 5.64 g/m*3 3.3 C 0 km/h
43 11-11-2019 03:30:00 3.3 C 5.64 g/m*3 3.3 C 1.6 km/h
44 11-11-2019 03:35:00 3.3 C 5.64 g/m*3 3.3 C 3.2 km/h
45 11-11-2019 03:40:00 3.3 C 5.64 g/m*3 3.3 C 3.2 km/h
46 11-11-2019 03:45:00 3.3 C 5.64 g/m*3 3.3 C 3.2 km/h
47 11-11-2019 03:50:00 3.3 C 5.64 g/m*3 3.3 C 0 km/h
48 11-11-2019 03:55:00 3.2 C 5.6 g/m*3 3.2 C 3.2 km/h
49 11-11-2019 04:00:00 3.2 C 5.6 g/m*3 3.2 C 0 km/h
50 11-11-2019 04:05:00 3.2 C 5.6 g/m*3 3.2 C 0 km/h
Sensor: Nr:Datum:Temp:Abs-Feuchte:Windchill:Wind:
Aussen-T/F 51 11-11-2019 04:10:00 3.2 C 5.6 g/m*3 3.2 C 3.2 km/h
52 11-11-2019 04:15:00 3.2 C 5.6 g/m*3 3.2 C 3.2 km/h
53 11-11-2019 04:20:00 3.1 C 5.57 g/m*3 3.1 C 0 km/h
54 11-11-2019 04:25:00 3.2 C 5.6 g/m*3 3.2 C 0 km/h
55 11-11-2019 04:30:00 3.1 C 5.57 g/m*3 3.1 C 1.6 km/h
56 11-11-2019 04:35:00 3.1 C 5.57 g/m*3 3.1 C 0 km/h
57 11-11-2019 04:40:00 3.1 C 5.57 g/m*3 3.1 C 4.8 km/h
58 11-11-2019 04:45:00 3.1 C 5.57 g/m*3 3.1 C 0 km/h
59 11-11-2019 04:50:00 3.1 C 5.57 g/m*3 3.1 C 0 km/h
60 11-11-2019 04:55:00 3.1 C 5.57 g/m*3 3.1 C 0 km/h
61 11-11-2019 05:00:00 3.2 C 5.6 g/m*3 3.2 C 0 km/h
62 11-11-2019 05:05:00 3.2 C 5.6 g/m*3 3.2 C 3.2 km/h
63 11-11-2019 05:10:00 3.2 C 5.6 g/m*3 3.2 C 1.6 km/h
64 11-11-2019 05:15:00 3.2 C 5.6 g/m*3 3.2 C 0 km/h
65 11-11-2019 05:20:00 3.2 C 5.6 g/m*3 3.2 C 0 km/h
66 11-11-2019 05:25:00 3.2 C 5.6 g/m*3 3.2 C 0 km/h
67 11-11-2019 05:30:00 3.2 C 5.6 g/m*3 3.2 C 0 km/h
68 11-11-2019 05:35:00 3.2 C 5.66 g/m*3 3.2 C 0 km/h
69 11-11-2019 05:40:00 3.3 C 5.7 g/m*3 3.3 C 0 km/h
70 11-11-2019 05:45:00 3.3 C 5.7 g/m*3 3.3 C 0 km/h
71 11-11-2019 05:50:00 3.3 C 5.7 g/m*3 3.3 C 0 km/h
72 11-11-2019 05:55:00 3.3 C 5.7 g/m*3 3.3 C 0 km/h
73 11-11-2019 06:00:00 3.3 C 5.7 g/m*3 3.3 C 0 km/h
74 11-11-2019 06:05:00 3.3 C 5.64 g/m*3 3.3 C 0 km/h
75 11-11-2019 06:10:00 3.3 C 5.64 g/m*3 3.3 C 0 km/h
Sensor: Nr:Datum:Temp:Abs-Feuchte:Windchill:Wind:
Aussen-T/F 76 11-11-2019 06:15:00 3.3 C 5.64 g/m*3 3.3 C 0 km/h
77 11-11-2019 06:20:00 3.3 C 5.64 g/m*3 3.3 C 0 km/h
78 11-11-2019 06:25:00 3.3 C 5.64 g/m*3 3.3 C 0 km/h
79 11-11-2019 06:30:00 3.3 C 5.64 g/m*3 3.3 C 0 km/h
80 11-11-2019 06:35:00 3.3 C 5.64 g/m*3 3.3 C 0 km/h
81 11-11-2019 06:40:00 3.3 C 5.64 g/m*3 3.3 C 0 km/h
82 11-11-2019 06:45:00 3.3 C 5.7 g/m*3 3.3 C 0 km/h
83 11-11-2019 06:50:00 3.3 C 5.7 g/m*3 3.3 C 0 km/h
84 11-11-2019 06:55:00 3.3 C 5.7 g/m*3 3.3 C 0 km/h
85 11-11-2019 07:00:00 3.3 C 5.7 g/m*3 3.3 C 0 km/h
86 11-11-2019 07:05:00 3.3 C 5.7 g/m*3 3.3 C 0 km/h
87 11-11-2019 07:10:00 3.3 C 5.7 g/m*3 3.3 C 0 km/h
88 11-11-2019 07:15:00 3.3 C 5.7 g/m*3 3.3 C 0 km/h
89 11-11-2019 07:20:00 3.3 C 5.7 g/m*3 3.3 C 0 km/h
90 11-11-2019 07:25:00 3.4 C 5.74 g/m*3 3.4 C 0 km/h
91 11-11-2019 07:30:00 3.4 C 5.74 g/m*3 3.4 C 0 km/h
92 11-11-2019 07:35:00 3.4 C 5.74 g/m*3 3.4 C 0 km/h
93 11-11-2019 07:40:00 3.4 C 5.74 g/m*3 3.4 C 0 km/h
94 11-11-2019 07:45:00 3.5 C 5.78 g/m*3 3.5 C 0 km/h
95 11-11-2019 07:50:00 3.5 C 5.78 g/m*3 3.5 C 0 km/h
96 11-11-2019 07:55:00 3.6 C 5.82 g/m*3 1.98 C 6.4 km/h
97 11-11-2019 08:00:00 3.7 C 5.86 g/m*3 3.7 C 3.2 km/h
98 11-11-2019 08:05:00 3.7 C 5.86 g/m*3 3.7 C 4.8 km/h
99 11-11-2019 08:10:00 3.8 C 5.9 g/m*3 3.8 C 4.8 km/h
100 11-11-2019 08:15:00 3.9 C 5.94 g/m*3 1.82 C 8.1 km/h
Sensor: Nr:Datum:Temp:Abs-Feuchte:Windchill:Wind:
Aussen-T/F 101 11-11-2019 08:20:00 4.1 C 5.95 g/m*3 4.1 C 4.8 km/h
102 11-11-2019 08:25:00 4.2 C 5.99 g/m*3 4.2 C 4.8 km/h
103 11-11-2019 08:30:00 4.2 C 5.99 g/m*3 2.17 C 8.1 km/h
104 11-11-2019 08:35:00 4.3 C 5.97 g/m*3 2.78 C 6.4 km/h
105 11-11-2019 08:40:00 4.4 C 6.01 g/m*3 4.4 C 4.8 km/h
106 11-11-2019 08:45:00 4.5 C 6.05 g/m*3 1.79 C 11.3 km/h
107 11-11-2019 08:50:00 4.6 C 6.09 g/m*3 4.6 C 4.8 km/h
108 11-11-2019 08:55:00 4.6 C 6.02 g/m*3 2.25 C 9.7 km/h
109 11-11-2019 09:00:00 4.7 C 6.06 g/m*3 3.25 C 6.4 km/h
110 11-11-2019 09:05:00 4.8 C 6.1 g/m*3 2.15 C 11.3 km/h
111 11-11-2019 09:10:00 4.8 C 6.1 g/m*3 2.87 C 8.1 km/h
112 11-11-2019 09:15:00 4.9 C 6.14 g/m*3 2.27 C 11.3 km/h
113 11-11-2019 09:20:00 4.9 C 6.08 g/m*3 2.61 C 9.7 km/h
114 11-11-2019 09:25:00 4.9 C 6.08 g/m*3 2.99 C 8.1 km/h
115 11-11-2019 09:30:00 5 C 6.12 g/m*3 3.11 C 8.1 km/h
116 11-11-2019 09:35:00 5.1 C 6.16 g/m*3 2.84 C 9.7 km/h
117 11-11-2019 09:40:00 5.1 C 6.09 g/m*3 3.71 C 6.4 km/h
118 11-11-2019 09:45:00 5.1 C 6.16 g/m*3 5.1 C 4.8 km/h
119 11-11-2019 09:50:00 5.2 C 6.2 g/m*3 5.2 C 3.2 km/h
120 11-11-2019 09:55:00 5.3 C 6.24 g/m*3 3.94 C 6.4 km/h
121 11-11-2019 10:00:00 5.3 C 6.17 g/m*3 3.94 C 6.4 km/h
122 11-11-2019 10:05:00 5.2 C 6.13 g/m*3 2.07 C 14.5 km/h
123 11-11-2019 10:10:00 5.2 C 6.13 g/m*3 3.82 C 6.4 km/h
124 11-11-2019 10:15:00 5.2 C 6.2 g/m*3 5.2 C 3.2 km/h
125 11-11-2019 10:20:00 5.2 C 6.13 g/m*3 5.2 C 3.2 km/h
Sensor: Nr:Datum:Temp:Abs-Feuchte:Windchill:Wind:
Aussen-T/F 126 11-11-2019 10:25:00 5.3 C 6.24 g/m*3 3.94 C 6.4 km/h
127 11-11-2019 10:30:00 5.3 C 6.17 g/m*3 5.3 C 4.8 km/h
128 11-11-2019 10:35:00 5.3 C 6.17 g/m*3 3.46 C 8.1 km/h
129 11-11-2019 10:40:00 5.3 C 6.17 g/m*3 3.94 C 6.4 km/h
130 11-11-2019 10:45:00 5.3 C 6.17 g/m*3 3.46 C 8.1 km/h
131 11-11-2019 10:50:00 5.2 C 6.13 g/m*3 2.63 C 11.3 km/h
132 11-11-2019 10:55:00 5.1 C 6.02 g/m*3 3.23 C 8.1 km/h
133 11-11-2019 11:00:00 5.2 C 6.13 g/m*3 2.96 C 9.7 km/h
134 11-11-2019 11:05:00 5.3 C 6.24 g/m*3 5.3 C 4.8 km/h
135 11-11-2019 11:10:00 5.3 C 6.1 g/m*3 3.08 C 9.7 km/h
136 11-11-2019 11:15:00 5.3 C 6.17 g/m*3 3.08 C 9.7 km/h
137 11-11-2019 11:20:00 5.4 C 6.21 g/m*3 5.4 C 3.2 km/h
138 11-11-2019 11:25:00 5.6 C 6.29 g/m*3 5.6 C 3.2 km/h
139 11-11-2019 11:30:00 5.7 C 6.26 g/m*3 4.4 C 6.4 km/h
140 11-11-2019 11:35:00 5.7 C 6.26 g/m*3 3.93 C 8.1 km/h
141 11-11-2019 11:40:00 5.7 C 6.19 g/m*3 4.4 C 6.4 km/h
142 11-11-2019 11:45:00 5.7 C 6.19 g/m*3 5.7 C 4.8 km/h
143 11-11-2019 11:50:00 5.8 C 6.3 g/m*3 4.05 C 8.1 km/h
144 11-11-2019 11:55:00 5.8 C 6.23 g/m*3 3.07 C 12.9 km/h
145 11-11-2019 12:00:00 5.8 C 6.23 g/m*3 4.52 C 6.4 km/h
146 11-11-2019 12:05:00 5.9 C 6.27 g/m*3 4.17 C 8.1 km/h
147 11-11-2019 12:10:00 6 C 6.39 g/m*3 6 C 3.2 km/h
148 11-11-2019 12:15:00 6.1 C 6.28 g/m*3 4.86 C 6.4 km/h
149 11-11-2019 12:20:00 6 C 6.24 g/m*3 3.92 C 9.7 km/h
150 11-11-2019 12:25:00 6 C 6.31 g/m*3 4.28 C 8.1 km/h
Sensor: Nr:Datum:Temp:Abs-Feuchte:Windchill:Wind:
Aussen-T/F 151 11-11-2019 12:30:00 6.1 C 6.36 g/m*3 3.72 C 11.3 km/h
152 11-11-2019 12:35:00 6.1 C 6.36 g/m*3 4.4 C 8.1 km/h
153 11-11-2019 12:40:00 6 C 6.31 g/m*3 4.75 C 6.4 km/h
154 11-11-2019 12:45:00 6 C 6.31 g/m*3 6 C 4.8 km/h
155 11-11-2019 12:50:00 6.1 C 6.36 g/m*3 4.04 C 9.7 km/h
156 11-11-2019 12:55:00 6.2 C 6.4 g/m*3 6.2 C 3.2 km/h
157 11-11-2019 13:00:00 6.3 C 6.44 g/m*3 5.1 C 6.4 km/h
158 11-11-2019 13:05:00 6.4 C 6.48 g/m*3 6.4 C 3.2 km/h
159 11-11-2019 13:10:00 6.4 C 6.41 g/m*3 6.4 C 4.8 km/h
160 11-11-2019 13:15:00 6.5 C 6.45 g/m*3 6.5 C 3.2 km/h
161 11-11-2019 13:20:00 6.5 C 6.45 g/m*3 6.5 C 4.8 km/h
162 11-11-2019 13:25:00 6.5 C 6.45 g/m*3 5.33 C 6.4 km/h
163 11-11-2019 13:30:00 6.5 C 6.37 g/m*3 5.33 C 6.4 km/h
164 11-11-2019 13:35:00 6.4 C 6.41 g/m*3 6.4 C 4.8 km/h
165 11-11-2019 13:40:00 6.4 C 6.41 g/m*3 6.4 C 1.6 km/h
166 11-11-2019 13:45:00 6.4 C 6.33 g/m*3 4.75 C 8.1 km/h
167 11-11-2019 13:50:00 6.4 C 6.41 g/m*3 4.39 C 9.7 km/h
168 11-11-2019 13:55:00 6.4 C 6.41 g/m*3 4.75 C 8.1 km/h
169 11-11-2019 14:00:00 6.3 C 6.37 g/m*3 5.1 C 6.4 km/h
170 11-11-2019 14:05:00 6.3 C 6.37 g/m*3 4.27 C 9.7 km/h
171 11-11-2019 14:10:00 6.3 C 6.37 g/m*3 5.1 C 6.4 km/h
172 11-11-2019 14:15:00 6.3 C 6.37 g/m*3 3.68 C 12.9 km/h
173 11-11-2019 14:20:00 6.2 C 6.32 g/m*3 4.15 C 9.7 km/h
174 11-11-2019 14:25:00 6.2 C 6.32 g/m*3 6.2 C 3.2 km/h
175 11-11-2019 14:30:00 6.2 C 6.4 g/m*3 6.2 C 1.6 km/h
Sensor: Nr:Datum:Temp:Abs-Feuchte:Windchill:Wind:
Aussen-T/F 176 11-11-2019 14:35:00 6.2 C 6.32 g/m*3 4.52 C 8.1 km/h
177 11-11-2019 14:40:00 6 C 6.31 g/m*3 4.75 C 6.4 km/h
178 11-11-2019 14:45:00 5.9 C 6.27 g/m*3 4.63 C 6.4 km/h
179 11-11-2019 14:50:00 5.8 C 6.23 g/m*3 5.8 C 4.8 km/h
180 11-11-2019 14:55:00 5.7 C 6.26 g/m*3 4.4 C 6.4 km/h
181 11-11-2019 15:00:00 5.7 C 6.26 g/m*3 5.7 C 3.2 km/h
182 11-11-2019 15:05:00 5.7 C 6.26 g/m*3 5.7 C 4.8 km/h
183 11-11-2019 15:10:00 5.7 C 6.26 g/m*3 5.7 C 4.8 km/h
184 11-11-2019 15:15:00 5.7 C 6.33 g/m*3 5.7 C 4.8 km/h
185 11-11-2019 15:20:00 5.7 C 6.33 g/m*3 5.7 C 4.8 km/h
186 11-11-2019 15:25:00 5.7 C 6.33 g/m*3 5.7 C 1.6 km/h
187 11-11-2019 15:30:00 5.7 C 6.33 g/m*3 3.93 C 8.1 km/h
188 11-11-2019 15:35:00 5.6 C 6.29 g/m*3 3.81 C 8.1 km/h
189 11-11-2019 15:40:00 5.6 C 6.29 g/m*3 5.6 C 4.8 km/h
190 11-11-2019 15:45:00 5.5 C 6.25 g/m*3 5.5 C 4.8 km/h
191 11-11-2019 15:50:00 5.4 C 6.21 g/m*3 4.06 C 6.4 km/h
192 11-11-2019 15:55:00 5.4 C 6.21 g/m*3 5.4 C 4.8 km/h
193 11-11-2019 16:00:00 5.3 C 6.17 g/m*3 5.3 C 4.8 km/h
194 11-11-2019 16:05:00 5.4 C 6.28 g/m*3 5.4 C 4.8 km/h
195 11-11-2019 16:10:00 5.3 C 6.24 g/m*3 3.08 C 9.7 km/h
196 11-11-2019 16:15:00 5.3 C 6.24 g/m*3 2.75 C 11.3 km/h
197 11-11-2019 16:20:00 5.3 C 6.24 g/m*3 3.94 C 6.4 km/h
198 11-11-2019 16:25:00 5.3 C 6.24 g/m*3 2.75 C 11.3 km/h
199 11-11-2019 16:30:00 5.2 C 6.2 g/m*3 5.2 C 4.8 km/h
200 11-11-2019 16:35:00 5.2 C 6.2 g/m*3 5.2 C 3.2 km/h
Sensor: Nr:Datum:Temp:Abs-Feuchte:Windchill:Wind:
Aussen-T/F 201 11-11-2019 16:40:00 5.2 C 6.2 g/m*3 5.2 C 1.6 km/h
202 11-11-2019 16:45:00 5.2 C 6.2 g/m*3 5.2 C 4.8 km/h
203 11-11-2019 16:50:00 5.2 C 6.2 g/m*3 5.2 C 1.6 km/h
204 11-11-2019 16:55:00 5.2 C 6.2 g/m*3 5.2 C 4.8 km/h
205 11-11-2019 17:00:00 5.1 C 6.16 g/m*3 3.71 C 6.4 km/h
206 11-11-2019 17:05:00 5.1 C 6.16 g/m*3 3.23 C 8.1 km/h
207 11-11-2019 17:10:00 5.1 C 6.16 g/m*3 2.84 C 9.7 km/h
208 11-11-2019 17:15:00 5.1 C 6.16 g/m*3 5.1 C 4.8 km/h
209 11-11-2019 17:20:00 5.1 C 6.16 g/m*3 3.23 C 8.1 km/h
210 11-11-2019 17:25:00 5.1 C 6.16 g/m*3 3.23 C 8.1 km/h
211 11-11-2019 17:30:00 5.1 C 6.16 g/m*3 2.84 C 9.7 km/h
212 11-11-2019 17:35:00 5.1 C 6.16 g/m*3 3.23 C 8.1 km/h
213 11-11-2019 17:40:00 5.1 C 6.16 g/m*3 5.1 C 1.6 km/h
214 11-11-2019 17:45:00 5.1 C 6.16 g/m*3 3.71 C 6.4 km/h
215 11-11-2019 17:50:00 5.1 C 6.16 g/m*3 3.71 C 6.4 km/h
216 11-11-2019 17:55:00 5 C 6.12 g/m*3 5 C 3.2 km/h
217 11-11-2019 18:00:00 4.9 C 6.08 g/m*3 2.99 C 8.1 km/h
218 11-11-2019 18:05:00 4.9 C 6.08 g/m*3 4.9 C 1.6 km/h
219 11-11-2019 18:10:00 4.8 C 6.04 g/m*3 4.8 C 4.8 km/h
220 11-11-2019 18:15:00 4.8 C 6.04 g/m*3 4.8 C 4.8 km/h
221 11-11-2019 18:20:00 4.8 C 6.1 g/m*3 4.8 C 4.8 km/h
222 11-11-2019 18:25:00 4.8 C 6.1 g/m*3 4.8 C 1.6 km/h
223 11-11-2019 18:30:00 4.8 C 6.1 g/m*3 4.8 C 4.8 km/h
224 11-11-2019 18:35:00 4.9 C 6.14 g/m*3 4.9 C 4.8 km/h
225 11-11-2019 18:40:00 4.9 C 6.14 g/m*3 4.9 C 3.2 km/h
Sensor: Nr:Datum:Temp:Abs-Feuchte:Windchill:Wind:
Aussen-T/F 226 11-11-2019 18:45:00 4.9 C 6.14 g/m*3 4.9 C 4.8 km/h
227 11-11-2019 18:50:00 4.9 C 6.14 g/m*3 4.9 C 3.2 km/h
228 11-11-2019 18:55:00 4.9 C 6.14 g/m*3 4.9 C 3.2 km/h
229 11-11-2019 19:00:00 4.9 C 6.21 g/m*3 4.9 C 1.6 km/h
230 11-11-2019 19:05:00 4.9 C 6.21 g/m*3 4.9 C 4.8 km/h
231 11-11-2019 19:10:00 4.9 C 6.21 g/m*3 4.9 C 0 km/h
232 11-11-2019 19:15:00 4.9 C 6.21 g/m*3 4.9 C 0 km/h
233 11-11-2019 19:20:00 4.8 C 6.17 g/m*3 4.8 C 3.2 km/h
234 11-11-2019 19:25:00 4.8 C 6.24 g/m*3 4.8 C 0 km/h
235 11-11-2019 19:30:00 4.8 C 6.24 g/m*3 4.8 C 0 km/h
236 11-11-2019 19:35:00 4.8 C 6.24 g/m*3 4.8 C 0 km/h
237 11-11-2019 19:40:00 4.8 C 6.24 g/m*3 4.8 C 0 km/h
238 11-11-2019 19:45:00 4.8 C 6.24 g/m*3 4.8 C 0 km/h
239 11-11-2019 19:50:00 4.8 C 6.24 g/m*3 4.8 C 0 km/h
240 11-11-2019 19:55:00 4.8 C 6.24 g/m*3 4.8 C 0 km/h
241 11-11-2019 20:00:00 4.8 C 6.24 g/m*3 4.8 C 0 km/h
242 11-11-2019 20:05:00 4.8 C 6.3 g/m*3 4.8 C 0 km/h
243 11-11-2019 20:10:00 4.8 C 6.3 g/m*3 4.8 C 0 km/h
244 11-11-2019 20:15:00 4.8 C 6.3 g/m*3 4.8 C 0 km/h
245 11-11-2019 20:20:00 4.8 C 6.3 g/m*3 4.8 C 0 km/h
246 11-11-2019 20:25:00 4.8 C 6.3 g/m*3 4.8 C 0 km/h
247 11-11-2019 20:30:00 4.8 C 6.3 g/m*3 4.8 C 0 km/h
248 11-11-2019 20:35:00 4.8 C 6.3 g/m*3 4.8 C 0 km/h
249 11-11-2019 20:40:00 4.8 C 6.3 g/m*3 4.8 C 1.6 km/h
250 11-11-2019 20:45:00 4.8 C 6.3 g/m*3 4.8 C 0 km/h
Sensor: Nr:Datum:Temp:Abs-Feuchte:Windchill:Wind:
Aussen-T/F 251 11-11-2019 20:50:00 4.8 C 6.3 g/m*3 4.8 C 0 km/h
252 11-11-2019 20:55:00 4.8 C 6.37 g/m*3 4.8 C 0 km/h
253 11-11-2019 21:00:00 4.8 C 6.37 g/m*3 4.8 C 0 km/h
254 11-11-2019 21:05:00 4.8 C 6.37 g/m*3 4.8 C 0 km/h
255 11-11-2019 21:10:00 4.8 C 6.37 g/m*3 4.8 C 1.6 km/h
256 11-11-2019 21:15:00 4.9 C 6.41 g/m*3 4.9 C 0 km/h
257 11-11-2019 21:20:00 4.9 C 6.41 g/m*3 4.9 C 0 km/h
258 11-11-2019 21:25:00 4.9 C 6.41 g/m*3 4.9 C 0 km/h
259 11-11-2019 21:30:00 5 C 6.46 g/m*3 5 C 0 km/h
260 11-11-2019 21:35:00 5 C 6.46 g/m*3 5 C 0 km/h
261 11-11-2019 21:40:00 5.1 C 6.5 g/m*3 5.1 C 0 km/h
262 11-11-2019 21:45:00 5.1 C 6.5 g/m*3 5.1 C 4.8 km/h
263 11-11-2019 21:50:00 5.2 C 6.54 g/m*3 5.2 C 1.6 km/h
264 11-11-2019 21:55:00 5.2 C 6.54 g/m*3 5.2 C 4.8 km/h
265 11-11-2019 22:00:00 5.2 C 6.54 g/m*3 5.2 C 3.2 km/h
266 11-11-2019 22:05:00 5.2 C 6.54 g/m*3 5.2 C 0 km/h
267 11-11-2019 22:10:00 5.2 C 6.54 g/m*3 5.2 C 3.2 km/h
268 11-11-2019 22:15:00 5.2 C 6.54 g/m*3 5.2 C 3.2 km/h
269 11-11-2019 22:20:00 5.1 C 6.5 g/m*3 5.1 C 3.2 km/h
270 11-11-2019 22:25:00 5.1 C 6.5 g/m*3 5.1 C 0 km/h
271 11-11-2019 22:30:00 5.1 C 6.5 g/m*3 5.1 C 0 km/h
272 11-11-2019 22:35:00 5.1 C 6.5 g/m*3 5.1 C 0 km/h
273 11-11-2019 22:40:00 5.1 C 6.5 g/m*3 5.1 C 0 km/h
274 11-11-2019 22:45:00 5.1 C 6.5 g/m*3 5.1 C 0 km/h
275 11-11-2019 22:50:00 5.1 C 6.5 g/m*3 5.1 C 0 km/h
Sensor: Nr:Datum:Temp:Abs-Feuchte:Windchill:Wind:
Aussen-T/F 276 11-11-2019 22:55:00 5.1 C 6.5 g/m*3 5.1 C 0 km/h
277 11-11-2019 23:00:00 5.1 C 6.5 g/m*3 5.1 C 0 km/h
278 11-11-2019 23:05:00 5.1 C 6.57 g/m*3 5.1 C 0 km/h
279 11-11-2019 23:10:00 5.2 C 6.61 g/m*3 5.2 C 0 km/h
280 11-11-2019 23:15:00 5.2 C 6.61 g/m*3 5.2 C 0 km/h
281 11-11-2019 23:20:00 5.2 C 6.61 g/m*3 5.2 C 0 km/h
282 11-11-2019 23:25:00 5.2 C 6.61 g/m*3 5.2 C 0 km/h
283 11-11-2019 23:30:00 5.2 C 6.61 g/m*3 5.2 C 0 km/h
284 11-11-2019 23:35:00 5.2 C 6.61 g/m*3 5.2 C 0 km/h
285 11-11-2019 23:40:00 5.2 C 6.61 g/m*3 5.2 C 0 km/h
286 11-11-2019 23:45:00 5.2 C 6.61 g/m*3 5.2 C 0 km/h
287 11-11-2019 23:50:00 5.2 C 6.61 g/m*3 5.2 C 1.6 km/h
288 11-11-2019 23:55:00 5.2 C 6.61 g/m*3 5.2 C 0 km/h

Legende:
   Min
   Max


Maximal/Minimal-Werte vom 14.04.2020 - 16.05.2020

Sensor Min Max Avg
Temp
(Aussen-T/F)
-0.1 °C
15-04-2020  06:55:00
26.2 °C
17-04-2020  18:05:00
11.98 °C

Die Daten stammen von einer Davis Vantage Pro 2 Wetter-Station und werden unter Linux mit der Software wview2wettercgi und aufbereitet. Alle Angaben erfolgen ohne Gewähr für ihre Vollständigkeit oder Richtigkeit.
Kontakt: Rainer Krienke krienke@uni-koblenz.de . Meine Webseiten an der Uni Koblenz oder privat.
Version: $Revision: 0.78 $